Time;durP1;ratioP1;P1;durP2;ratioP2;P2;SDS_P1;SDS_P2;PMS_P1;PMS_P2;Temp;Humidity;BMP_temperature;BMP_pressure;BME280_temperature;BME280_humidity;BME280_pressure;Samples;Min_cycle;Max_cycle;Signal;HPM_P1;HPM_P2
2022/04/14 00:01:25;;;;;;;13.57;3.70;;;;;;;;;;5078958;28;20044;-73
2022/04/14 00:03:51;;;;;;;9.88;3.78;;;;;;;;;;5078228;28;20028;-74
2022/04/14 00:06:27;;;;;;;13.73;3.97;;;;;;;;;;5091113;28;20077;-73
2022/04/14 00:08:53;;;;;;;13.95;4.13;;;;;;;;;;5078499;28;20066;-74
2022/04/14 00:11:19;;;;;;;6.47;2.70;;;;;;;;;;5061074;28;20322;-74
2022/04/14 00:13:46;;;;;;;13.55;4.03;;;;;;;;;;5075732;28;20033;-74
2022/04/14 00:16:12;;;;;;;12.73;4.65;;;;;;;;;;5059246;28;20121;-73
2022/04/14 00:18:38;;;;;;;11.43;3.83;;;;;;;;;;5077250;28;20024;-74
2022/04/14 00:21:07;;;;;;;12.27;3.30;;;;;;;;;;5078488;28;20031;-73
2022/04/14 00:23:36;;;;;;;9.13;2.88;;;;;;;;;;5060807;28;20024;-74
2022/04/14 00:26:02;;;;;;;6.22;3.08;;;;;;;;;;5078501;28;20433;-73
2022/04/14 00:28:28;;;;;;;12.35;3.33;;;;;;;;;;5078353;28;20040;-73
2022/04/14 00:30:54;;;;;;;9.43;3.28;;;;;;;;;;5078304;28;20032;-73
2022/04/14 00:33:20;;;;;;;11.45;3.58;;;;;;;;;;5093978;28;20016;-73
2022/04/14 00:35:46;;;;;;;8.45;2.60;;;;;;;;;;5094028;28;20036;-73
2022/04/14 00:38:12;;;;;;;15.38;3.72;;;;;;;;;;5077653;28;20013;-73
2022/04/14 00:40:38;;;;;;;11.02;4.57;;;;;;;;;;5076970;28;20127;-73
2022/04/14 00:43:04;;;;;;;17.00;3.45;;;;;;;;;;5078355;28;20020;-73
2022/04/14 00:45:30;;;;;;;15.00;2.90;;;;;;;;;;5076337;28;20078;-73
2022/04/14 00:47:56;;;;;;;13.20;3.00;;;;;;;;;;5076408;28;20024;-74
2022/04/14 00:50:42;;;;;;;6.95;3.30;;;;;;;;;;5048565;28;20338;-75
2022/04/14 00:53:12;;;;;;;9.70;3.20;;;;;;;;;;5053344;28;20036;-73
2022/04/14 00:55:43;;;;;;;10.07;4.50;;;;;;;;;;5072942;22;20100;-73
2022/04/14 00:58:35;;;;;;;14.00;3.38;;;;;;;;;;5071619;28;20086;-74
2022/04/14 01:03:55;;;;;;;9.10;3.25;;;;;;;;;;4953427;28;2762403;-74
2022/04/14 01:06:23;;;;;;;10.03;3.73;;;;;;;;;;5022305;28;20179;-74
2022/04/14 01:11:40;;;;;;;10.43;3.33;;;;;;;;;;4482699;22;20036;-74
2022/04/14 01:14:20;;;;;;;8.55;2.88;;;;;;;;;;5071169;22;20058;-73
2022/04/14 01:16:54;;;;;;;9.18;2.85;;;;;;;;;;5053523;22;20037;-74
2022/04/14 01:22:08;;;;;;;9.43;2.50;;;;;;;;;;5041965;28;20037;-74
2022/04/14 01:24:38;;;;;;;20.50;4.93;;;;;;;;;;5057654;22;20036;-74
2022/04/14 01:27:12;;;;;;;13.83;4.10;;;;;;;;;;5070660;22;20051;-74
2022/04/14 01:32:26;;;;;;;10.43;4.32;;;;;;;;;;5046546;22;20037;-74
2022/04/14 01:34:55;;;;;;;13.05;3.65;;;;;;;;;;5071668;22;20051;-75
2022/04/14 01:37:25;;;;;;;9.65;3.03;;;;;;;;;;5068837;22;20048;-74
2022/04/14 01:39:54;;;;;;;12.18;3.72;;;;;;;;;;5074117;28;20044;-74
2022/04/14 01:45:12;;;;;;;10.27;4.10;;;;;;;;;;5040438;22;20695;-74
2022/04/14 01:50:13;;;;;;;11.23;3.58;;;;;;;;;;5062312;22;20450;-74
2022/04/14 01:52:40;;;;;;;11.20;2.80;;;;;;;;;;5066805;22;20044;-73
2022/04/14 02:04:08;;;;;;;11.15;2.83;;;;;;;;;;5048202;28;20052;-73
2022/04/14 02:06:54;;;;;;;11.63;4.10;;;;;;;;;;5087682;22;20052;-74
2022/04/14 02:09:32;;;;;;;11.45;3.25;;;;;;;;;;5081093;28;20020;-75
2022/04/14 02:12:05;;;;;;;12.13;3.67;;;;;;;;;;5091917;22;20294;-75
2022/04/14 02:17:30;;;;;;;11.35;4.13;;;;;;;;;;5099021;22;20044;-74
2022/04/14 02:20:16;;;;;;;9.60;4.38;;;;;;;;;;5070599;22;20032;-75
2022/04/14 02:22:47;;;;;;;11.00;4.20;;;;;;;;;;5050329;22;20047;-76
2022/04/14 02:25:46;;;;;;;11.80;3.50;;;;;;;;;;5067353;22;20051;-74
2022/04/14 02:28:21;;;;;;;9.50;3.55;;;;;;;;;;5025395;28;20055;-75
2022/04/14 02:33:26;;;;;;;11.80;4.22;;;;;;;;;;4555629;22;20316;-75
2022/04/14 02:35:52;;;;;;;10.35;4.53;;;;;;;;;;5069052;28;20127;-75
2022/04/14 02:38:32;;;;;;;7.80;3.08;;;;;;;;;;5086193;22;20131;-75
2022/04/14 02:41:06;;;;;;;12.30;3.45;;;;;;;;;;5071561;22;20378;-75
2022/04/14 02:43:41;;;;;;;7.90;2.92;;;;;;;;;;5052378;28;20075;-75
2022/04/14 02:46:11;;;;;;;9.20;3.25;;;;;;;;;;5076415;28;20066;-75
2022/04/14 02:48:39;;;;;;;7.85;3.00;;;;;;;;;;5094604;28;20022;-75
2022/04/14 02:51:06;;;;;;;7.93;3.22;;;;;;;;;;5073291;28;20479;-75
2022/04/14 02:53:41;;;;;;;7.72;3.72;;;;;;;;;;5074044;28;20031;-75
2022/04/14 02:56:24;;;;;;;10.70;3.08;;;;;;;;;;5071842;28;20047;-74
2022/04/14 02:59:06;;;;;;;17.55;4.97;;;;;;;;;;5054282;28;20262;-76
2022/04/14 03:01:34;;;;;;;9.85;3.00;;;;;;;;;;5073274;28;20067;-74
2022/04/14 03:04:02;;;;;;;19.03;4.23;;;;;;;;;;5077196;28;20046;-73
2022/04/14 03:06:29;;;;;;;13.43;3.20;;;;;;;;;;5077298;28;20024;-73
2022/04/14 03:08:55;;;;;;;10.45;2.95;;;;;;;;;;5094732;28;20094;-75
2022/04/14 03:11:21;;;;;;;7.50;3.08;;;;;;;;;;5094464;28;20073;-74
2022/04/14 03:13:48;;;;;;;12.38;4.57;;;;;;;;;;5094894;28;20372;-75
2022/04/14 03:16:17;;;;;;;8.43;3.63;;;;;;;;;;5095107;28;20410;-75
2022/04/14 03:18:43;;;;;;;12.05;3.92;;;;;;;;;;5077618;28;20070;-75
2022/04/14 03:21:11;;;;;;;13.20;3.63;;;;;;;;;;5077570;28;20376;-73
2022/04/14 03:23:39;;;;;;;81.00;20.52;;;;;;;;;;5077006;28;20262;-76
2022/04/14 03:26:08;;;;;;;11.25;4.35;;;;;;;;;;5094763;28;20540;-75
2022/04/14 03:28:35;;;;;;;7.43;3.15;;;;;;;;;;5096994;28;20032;-74
2022/04/14 03:31:01;;;;;;;8.23;2.83;;;;;;;;;;5077151;28;20047;-74
2022/04/14 03:33:27;;;;;;;7.15;2.55;;;;;;;;;;5075942;28;20020;-75
2022/04/14 03:35:53;;;;;;;7.82;2.95;;;;;;;;;;5077998;28;20439;-75
2022/04/14 03:38:20;;;;;;;5.32;2.63;;;;;;;;;;5097632;28;20020;-74
2022/04/14 03:40:46;;;;;;;12.38;2.85;;;;;;;;;;5078864;28;20038;-73
2022/04/14 03:43:12;;;;;;;12.60;2.33;;;;;;;;;;5062219;28;20500;-74
2022/04/14 03:45:38;;;;;;;9.68;3.10;;;;;;;;;;5097182;28;20073;-75
2022/04/14 03:48:05;;;;;;;8.85;2.35;;;;;;;;;;5078699;28;20019;-74
2022/04/14 03:50:30;;;;;;;5.20;1.65;;;;;;;;;;5097456;28;20437;-74
2022/04/14 03:52:57;;;;;;;9.65;3.67;;;;;;;;;;5096530;28;20453;-75
2022/04/14 03:55:23;;;;;;;14.00;2.15;;;;;;;;;;5092550;28;20043;-76
2022/04/14 03:57:49;;;;;;;6.53;1.50;;;;;;;;;;5075769;28;20069;-75
2022/04/14 04:00:18;;;;;;;6.60;1.98;;;;;;;;;;5078333;28;20024;-75
2022/04/14 04:02:44;;;;;;;5.75;1.80;;;;;;;;;;5060746;28;20030;-76
2022/04/14 04:05:11;;;;;;;7.45;2.22;;;;;;;;;;5095983;28;20030;-75
2022/04/14 04:07:40;;;;;;;10.95;2.05;;;;;;;;;;5079018;28;20154;-75
2022/04/14 04:10:06;;;;;;;5.10;1.85;;;;;;;;;;5078272;28;20050;-75
2022/04/14 04:12:32;;;;;;;5.93;2.63;;;;;;;;;;5095353;28;20013;-78
2022/04/14 04:15:01;;;;;;;8.98;3.22;;;;;;;;;;5060025;28;20113;-76
2022/04/14 04:17:27;;;;;;;7.03;2.63;;;;;;;;;;5077539;28;20082;-75
2022/04/14 04:19:55;;;;;;;9.57;2.83;;;;;;;;;;5094881;28;20275;-75
2022/04/14 04:22:24;;;;;;;7.70;2.28;;;;;;;;;;5074858;28;20429;-74
2022/04/14 04:24:50;;;;;;;6.00;1.70;;;;;;;;;;5072595;28;20478;-74
2022/04/14 04:27:16;;;;;;;2.90;1.42;;;;;;;;;;5073676;28;20100;-76
2022/04/14 04:29:43;;;;;;;6.75;2.33;;;;;;;;;;5092801;28;20421;-76
2022/04/14 04:32:09;;;;;;;10.88;2.72;;;;;;;;;;5075052;28;20034;-75
2022/04/14 04:34:35;;;;;;;7.38;2.33;;;;;;;;;;5074334;28;20032;-75
2022/04/14 04:37:02;;;;;;;8.45;2.58;;;;;;;;;;5094058;28;20031;-75
2022/04/14 04:39:29;;;;;;;7.63;3.78;;;;;;;;;;5076366;28;20027;-76
2022/04/14 04:41:55;;;;;;;3.15;1.70;;;;;;;;;;5095051;28;20429;-74
2022/04/14 04:44:21;;;;;;;8.20;1.70;;;;;;;;;;5075840;28;20330;-73
2022/04/14 04:46:47;;;;;;;12.05;2.53;;;;;;;;;;5077385;28;20106;-74
2022/04/14 04:49:16;;;;;;;7.10;1.95;;;;;;;;;;5094138;28;20104;-76
2022/04/14 04:51:42;;;;;;;6.13;2.80;;;;;;;;;;5095291;28;20057;-74
2022/04/14 04:54:08;;;;;;;9.23;2.03;;;;;;;;;;5077187;28;20028;-74
2022/04/14 04:56:34;;;;;;;15.45;4.78;;;;;;;;;;5092629;28;20079;-74
2022/04/14 04:59:02;;;;;;;8.65;2.50;;;;;;;;;;5077708;28;20043;-75
2022/04/14 05:01:28;;;;;;;7.80;2.67;;;;;;;;;;5095512;28;20020;-74
2022/04/14 05:03:54;;;;;;;15.43;4.07;;;;;;;;;;5077527;28;20028;-72
2022/04/14 05:06:20;;;;;;;6.18;2.00;;;;;;;;;;5095233;28;20020;-77
2022/04/14 05:08:47;;;;;;;12.15;2.83;;;;;;;;;;5061396;28;20425;-74
2022/04/14 05:11:14;;;;;;;9.63;4.88;;;;;;;;;;5061519;28;20023;-72
2022/04/14 05:13:40;;;;;;;9.98;3.03;;;;;;;;;;5060498;28;20016;-73
2022/04/14 05:16:07;;;;;;;3.42;1.52;;;;;;;;;;5077957;28;20441;-75
2022/04/14 05:18:33;;;;;;;8.05;1.65;;;;;;;;;;5095203;28;20036;-75
2022/04/14 05:20:59;;;;;;;16.20;3.15;;;;;;;;;;5077137;28;20382;-76
2022/04/14 05:23:25;;;;;;;14.38;2.97;;;;;;;;;;5060425;28;20024;-75
2022/04/14 05:25:51;;;;;;;4.60;1.67;;;;;;;;;;5094774;28;20020;-73
2022/04/14 05:28:17;;;;;;;3.40;1.65;;;;;;;;;;5096810;28;20018;-73
2022/04/14 05:30:43;;;;;;;2.65;1.20;;;;;;;;;;5095749;28;20020;-73
2022/04/14 05:33:10;;;;;;;8.32;1.85;;;;;;;;;;5094764;28;20052;-73
2022/04/14 05:35:37;;;;;;;8.48;1.20;;;;;;;;;;5094900;28;20028;-74
2022/04/14 05:38:04;;;;;;;2.30;0.80;;;;;;;;;;5060442;28;20035;-75
2022/04/14 05:40:30;;;;;;;3.78;1.35;;;;;;;;;;5058305;28;20031;-75
2022/04/14 05:42:56;;;;;;;7.20;1.83;;;;;;;;;;5075320;28;20444;-72
2022/04/14 05:45:22;;;;;;;6.47;2.35;;;;;;;;;;5092883;28;20052;-74
2022/04/14 05:47:49;;;;;;;6.10;1.25;;;;;;;;;;5092860;28;20130;-73
2022/04/14 05:50:16;;;;;;;8.27;1.60;;;;;;;;;;5058351;28;20215;-74
2022/04/14 05:52:42;;;;;;;4.65;1.83;;;;;;;;;;5091932;28;20073;-74
2022/04/14 05:55:08;;;;;;;6.03;1.80;;;;;;;;;;5056886;28;20032;-73
2022/04/14 05:57:35;;;;;;;20.90;2.75;;;;;;;;;;5077427;28;20094;-72
2022/04/14 06:00:01;;;;;;;8.57;1.98;;;;;;;;;;5101957;28;20024;-74
2022/04/14 06:02:26;;;;;;;5.88;1.73;;;;;;;;;;5081795;28;20019;-75
2022/04/14 06:04:53;;;;;;;11.50;4.20;;;;;;;;;;5096927;28;20038;-74
2022/04/14 06:07:19;;;;;;;6.82;2.03;;;;;;;;;;5096917;28;20012;-75
2022/04/14 06:09:45;;;;;;;7.32;1.42;;;;;;;;;;5078552;28;20077;-75
2022/04/14 06:12:11;;;;;;;4.75;1.65;;;;;;;;;;5094971;28;20028;-74
2022/04/14 06:14:37;;;;;;;6.40;2.25;;;;;;;;;;5098375;28;20036;-74
2022/04/14 06:17:04;;;;;;;8.82;1.95;;;;;;;;;;5097479;28;20012;-75
2022/04/14 06:19:30;;;;;;;6.50;1.45;;;;;;;;;;5096890;28;20020;-73
2022/04/14 06:21:56;;;;;;;9.73;2.08;;;;;;;;;;5097719;28;20409;-73
2022/04/14 06:24:22;;;;;;;11.35;3.00;;;;;;;;;;5097535;28;20012;-73
2022/04/14 06:26:49;;;;;;;13.55;4.35;;;;;;;;;;5057122;28;20089;-73
2022/04/14 06:29:16;;;;;;;8.88;1.77;;;;;;;;;;5062603;28;20305;-75
2022/04/14 06:31:42;;;;;;;9.13;1.67;;;;;;;;;;5079703;28;20444;-75
2022/04/14 06:34:08;;;;;;;12.10;2.47;;;;;;;;;;5062563;28;20067;-72
2022/04/14 06:36:34;;;;;;;22.90;4.95;;;;;;;;;;5098567;28;20043;-74
2022/04/14 06:39:00;;;;;;;14.30;2.20;;;;;;;;;;5098390;28;20153;-74
2022/04/14 06:41:26;;;;;;;7.43;1.83;;;;;;;;;;5097794;28;20027;-73
2022/04/14 06:43:54;;;;;;;9.43;2.50;;;;;;;;;;5079038;28;20027;-76
2022/04/14 06:46:20;;;;;;;8.85;1.90;;;;;;;;;;5089294;22;20436;-75
2022/04/14 06:48:46;;;;;;;13.15;2.80;;;;;;;;;;5064737;28;20114;-74
2022/04/14 06:51:12;;;;;;;17.25;2.90;;;;;;;;;;5102751;28;20133;-74
2022/04/14 06:53:38;;;;;;;64.47;14.57;;;;;;;;;;5097951;28;20244;-74
2022/04/14 06:56:05;;;;;;;21.73;4.60;;;;;;;;;;5097145;28;20035;-75
2022/04/14 06:58:31;;;;;;;18.45;2.22;;;;;;;;;;5096375;28;20017;-73
2022/04/14 07:00:57;;;;;;;4.65;1.80;;;;;;;;;;5096917;28;20047;-75
2022/04/14 07:03:26;;;;;;;13.88;2.63;;;;;;;;;;5084587;28;20016;-72
2022/04/14 07:05:54;;;;;;;32.28;9.23;;;;;;;;;;5064410;28;20348;-73
2022/04/14 07:08:24;;;;;;;13.95;2.17;;;;;;;;;;5078946;28;20348;-75
2022/04/14 07:10:57;;;;;;;3.85;1.38;;;;;;;;;;5078905;28;20031;-76
2022/04/14 07:13:23;;;;;;;5.80;2.08;;;;;;;;;;5078882;28;20023;-74
2022/04/14 07:15:49;;;;;;;90.10;21.20;;;;;;;;;;5078905;28;20088;-73
2022/04/14 07:18:34;;;;;;;50.20;12.60;;;;;;;;;;5092048;28;20062;-73
2022/04/14 07:21:00;;;;;;;15.55;3.25;;;;;;;;;;5058727;28;20094;-73
2022/04/14 07:23:27;;;;;;;98.80;17.70;;;;;;;;;;5078910;28;20023;-74
2022/04/14 07:25:56;;;;;;;;;;;;;;;;;;5062046;28;20338;-74
2022/04/14 07:28:22;;;;;;;9.70;2.45;;;;;;;;;;5077549;28;19904;-74
2022/04/14 07:30:48;;;;;;;28.40;5.78;;;;;;;;;;5059666;28;20031;-74
2022/04/14 07:33:14;;;;;;;45.65;8.23;;;;;;;;;;5094916;28;20024;-74
2022/04/14 07:35:40;;;;;;;10.38;3.13;;;;;;;;;;5094457;28;20039;-73
2022/04/14 07:38:07;;;;;;;55.88;13.82;;;;;;;;;;5077440;28;20016;-74
2022/04/14 07:40:33;;;;;;;67.70;12.35;;;;;;;;;;5095224;28;20081;-74
2022/04/14 07:43:01;;;;;;;57.35;14.90;;;;;;;;;;5095720;28;20016;-74
2022/04/14 07:45:27;;;;;;;11.48;3.42;;;;;;;;;;5061401;28;20027;-73
2022/04/14 07:47:53;;;;;;;17.17;3.35;;;;;;;;;;5095874;28;20023;-72
2022/04/14 07:50:20;;;;;;;9.43;3.85;;;;;;;;;;5095191;28;20379;-76
2022/04/14 07:52:50;;;;;;;9.93;3.55;;;;;;;;;;5094699;28;20114;-74
2022/04/14 07:55:19;;;;;;;28.40;4.68;;;;;;;;;;5095983;28;20024;-74
2022/04/14 07:57:45;;;;;;;11.52;2.50;;;;;;;;;;5096458;28;20024;-74
2022/04/14 08:00:11;;;;;;;45.13;10.95;;;;;;;;;;5079053;28;20050;-74
2022/04/14 08:02:45;;;;;;;53.10;10.48;;;;;;;;;;5096825;28;20012;-74
2022/04/14 08:05:11;;;;;;;23.02;3.72;;;;;;;;;;5097316;28;20052;-74
2022/04/14 08:07:37;;;;;;;15.60;3.05;;;;;;;;;;5078702;28;20043;-76
2022/04/14 08:10:03;;;;;;;9.02;2.05;;;;;;;;;;5097171;28;20023;-74
2022/04/14 08:12:29;;;;;;;10.32;2.80;;;;;;;;;;5078854;28;20078;-74
2022/04/14 08:14:55;;;;;;;7.10;1.98;;;;;;;;;;5079187;28;20040;-74
2022/04/14 08:17:21;;;;;;;9.23;3.60;;;;;;;;;;5079198;28;20332;-75
2022/04/14 08:19:47;;;;;;;10.32;3.38;;;;;;;;;;5078422;28;20020;-74
2022/04/14 08:22:13;;;;;;;18.40;3.30;;;;;;;;;;5097082;28;20016;-74
2022/04/14 08:24:39;;;;;;;18.13;2.90;;;;;;;;;;5096551;28;20043;-74
2022/04/14 08:27:06;;;;;;;6.78;1.98;;;;;;;;;;5078640;28;20095;-74
2022/04/14 08:29:34;;;;;;;11.07;2.35;;;;;;;;;;5097137;28;20030;-74
2022/04/14 08:32:01;;;;;;;21.70;3.95;;;;;;;;;;5096641;28;20024;-73
2022/04/14 08:34:27;;;;;;;28.80;8.15;;;;;;;;;;5078731;28;20032;-75
2022/04/14 08:36:53;;;;;;;15.23;4.72;;;;;;;;;;5096600;28;20023;-74
2022/04/14 08:39:19;;;;;;;8.88;2.63;;;;;;;;;;5078617;28;20039;-74
2022/04/14 08:41:49;;;;;;;48.38;13.13;;;;;;;;;;5097083;28;20036;-74
2022/04/14 08:44:16;;;;;;;49.97;10.02;;;;;;;;;;5078398;28;20081;-74
2022/04/14 08:46:42;;;;;;;21.63;6.07;;;;;;;;;;5096218;28;20326;-75
2022/04/14 08:49:09;;;;;;;34.33;6.35;;;;;;;;;;5078608;28;20412;-72
2022/04/14 08:51:38;;;;;;;97.70;21.88;;;;;;;;;;5094915;28;20090;-73
2022/04/14 08:54:05;;;;;;;68.80;19.55;;;;;;;;;;5095987;28;20020;-73
2022/04/14 08:56:31;;;;;;;15.80;4.15;;;;;;;;;;5078874;28;20024;-74
2022/04/14 08:58:58;;;;;;;33.92;6.32;;;;;;;;;;5078658;28;20024;-74
2022/04/14 09:01:25;;;;;;;38.20;7.95;;;;;;;;;;5097124;28;20388;-74
2022/04/14 09:03:55;;;;;;;37.75;9.88;;;;;;;;;;5095321;28;20016;-74
2022/04/14 09:06:22;;;;;;;32.25;5.50;;;;;;;;;;5095626;28;20019;-75
2022/04/14 09:08:48;;;;;;;12.27;3.67;;;;;;;;;;5077596;28;20070;-74
2022/04/14 09:11:14;;;;;;;20.33;5.32;;;;;;;;;;5077424;28;20016;-74
2022/04/14 09:13:43;;;;;;;82.07;11.13;;;;;;;;;;5096236;28;20305;-74
2022/04/14 09:16:09;;;;;;;73.30;16.02;;;;;;;;;;5096606;28;20035;-74
2022/04/14 09:18:35;;;;;;;40.30;10.50;;;;;;;;;;5078366;28;20352;-74
2022/04/14 09:21:08;;;;;;;12.05;2.55;;;;;;;;;;5095427;28;20022;-74
2022/04/14 09:23:36;;;;;;;30.38;5.72;;;;;;;;;;5096069;28;20019;-76
2022/04/14 09:26:23;;;;;;;16.13;2.20;;;;;;;;;;5096115;28;20031;-74
2022/04/14 09:29:00;;;;;;;6.95;3.25;;;;;;;;;;5095028;28;20383;-75
2022/04/14 09:31:28;;;;;;;14.75;3.40;;;;;;;;;;5095780;28;20016;-74
2022/04/14 09:33:55;;;;;;;15.68;2.50;;;;;;;;;;5077604;28;20099;-74
2022/04/14 09:36:23;;;;;;;16.00;4.10;;;;;;;;;;5095674;28;20032;-74
2022/04/14 09:38:49;;;;;;;14.75;4.28;;;;;;;;;;5096338;28;20016;-74
2022/04/14 09:41:30;;;;;;;23.38;3.92;;;;;;;;;;5078492;28;20031;-75
2022/04/14 09:43:58;;;;;;;7.60;3.42;;;;;;;;;;5078371;28;20062;-74
2022/04/14 09:46:24;;;;;;;15.10;4.45;;;;;;;;;;5096961;28;20079;-75
2022/04/14 09:49:07;;;;;;;12.95;2.88;;;;;;;;;;5078514;28;20107;-74
2022/04/14 09:51:35;;;;;;;16.83;2.78;;;;;;;;;;5096544;28;20027;-74
2022/04/14 09:54:02;;;;;;;14.48;3.92;;;;;;;;;;5096888;28;20016;-74
2022/04/14 09:56:47;;;;;;;9.43;4.32;;;;;;;;;;5096222;28;20126;-73
2022/04/14 09:59:14;;;;;;;8.50;3.50;;;;;;;;;;5078250;28;20024;-75
2022/04/14 10:01:40;;;;;;;21.83;6.40;;;;;;;;;;5096014;28;20024;-74
2022/04/14 10:04:07;;;;;;;23.15;6.28;;;;;;;;;;5077543;28;20016;-74
2022/04/14 10:06:33;;;;;;;19.20;3.72;;;;;;;;;;5095460;28;20020;-74
2022/04/14 10:08:59;;;;;;;12.85;2.47;;;;;;;;;;5077673;28;20035;-74
2022/04/14 10:11:25;;;;;;;20.17;3.72;;;;;;;;;;5095905;28;20429;-74
2022/04/14 10:13:51;;;;;;;39.00;6.30;;;;;;;;;;5096502;28;20024;-74
2022/04/14 10:16:21;;;;;;;19.02;3.42;;;;;;;;;;5078730;28;20028;-74
2022/04/14 10:18:47;;;;;;;10.20;2.43;;;;;;;;;;5096936;28;20093;-74
2022/04/14 10:21:14;;;;;;;12.73;3.53;;;;;;;;;;5097126;28;20241;-74
2022/04/14 10:23:40;;;;;;;16.00;2.72;;;;;;;;;;5097182;28;20027;-74
2022/04/14 10:26:07;;;;;;;14.73;2.80;;;;;;;;;;5078477;28;20039;-72
2022/04/14 10:28:35;;;;;;;17.98;3.83;;;;;;;;;;5078621;28;20489;-74
2022/04/14 10:31:01;;;;;;;12.75;2.55;;;;;;;;;;5078354;28;20106;-74
2022/04/14 10:33:28;;;;;;;10.20;4.13;;;;;;;;;;5078739;28;20070;-73
2022/04/14 10:35:54;;;;;;;22.98;3.55;;;;;;;;;;5096269;28;20056;-72
2022/04/14 10:38:22;;;;;;;15.57;3.67;;;;;;;;;;5061788;28;20016;-73
2022/04/14 10:40:50;;;;;;;14.13;3.15;;;;;;;;;;5078543;28;20020;-73
2022/04/14 10:43:19;;;;;;;11.88;4.25;;;;;;;;;;5080291;28;20341;-72
2022/04/14 10:45:49;;;;;;;20.70;3.40;;;;;;;;;;5081388;28;20348;-72
2022/04/14 10:48:34;;;;;;;27.88;3.97;;;;;;;;;;5099764;28;20333;-73
2022/04/14 10:51:19;;;;;;;11.60;2.67;;;;;;;;;;5100200;28;20078;-73
2022/04/14 10:53:57;;;;;;;5.70;2.10;;;;;;;;;;5081897;28;20360;-73
2022/04/14 10:56:45;;;;;;;13.48;3.03;;;;;;;;;;5099830;28;20032;-73
2022/04/14 10:59:14;;;;;;;11.82;3.83;;;;;;;;;;5100081;28;20027;-72
2022/04/14 11:01:50;;;;;;;8.48;3.05;;;;;;;;;;5081788;28;20016;-72
2022/04/14 11:04:26;;;;;;;16.77;2.65;;;;;;;;;;5100122;28;20020;-72
2022/04/14 11:06:59;;;;;;;12.90;3.30;;;;;;;;;;5082072;28;20012;-73
2022/04/14 11:09:44;;;;;;;11.50;2.47;;;;;;;;;;5099998;28;20023;-73
2022/04/14 11:12:19;;;;;;;16.20;3.63;;;;;;;;;;5099883;28;20020;-73
2022/04/14 11:14:57;;;;;;;24.67;4.65;;;;;;;;;;5099807;28;20032;-73
2022/04/14 11:17:32;;;;;;;20.05;6.05;;;;;;;;;;5081680;28;20016;-73
2022/04/14 11:20:17;;;;;;;14.52;3.45;;;;;;;;;;5099354;28;20062;-73
2022/04/14 11:23:01;;;;;;;16.40;3.75;;;;;;;;;;5099157;28;20016;-73
2022/04/14 11:25:42;;;;;;;12.40;3.42;;;;;;;;;;5099203;28;20345;-73
2022/04/14 11:28:28;;;;;;;12.02;3.10;;;;;;;;;;5082259;28;20020;-73
2022/04/14 11:30:55;;;;;;;25.95;4.80;;;;;;;;;;5099445;28;20394;-73
2022/04/14 11:33:29;;;;;;;10.75;2.15;;;;;;;;;;5098948;28;20065;-73
2022/04/14 11:36:14;;;;;;;19.92;3.72;;;;;;;;;;5081440;28;20028;-73
2022/04/14 11:38:56;;;;;;;22.17;2.95;;;;;;;;;;5081739;28;20422;-73
2022/04/14 11:41:31;;;;;;;19.42;4.10;;;;;;;;;;5098862;28;20016;-74
2022/04/14 11:43:57;;;;;;;16.85;2.42;;;;;;;;;;5081306;28;20020;-73
2022/04/14 11:46:23;;;;;;;13.73;2.50;;;;;;;;;;5098696;28;20039;-73
2022/04/14 11:48:49;;;;;;;12.75;2.72;;;;;;;;;;5099422;28;20032;-73
2022/04/14 11:51:18;;;;;;;22.33;3.78;;;;;;;;;;5099199;28;20022;-73
2022/04/14 11:53:44;;;;;;;14.85;3.75;;;;;;;;;;5098196;28;20020;-73
2022/04/14 11:56:20;;;;;;;12.98;2.85;;;;;;;;;;5098409;28;20322;-73
2022/04/14 11:58:46;;;;;;;15.75;3.55;;;;;;;;;;5098605;28;20024;-73
2022/04/14 12:01:12;;;;;;;20.73;3.35;;;;;;;;;;5098623;28;20024;-73
2022/04/14 12:03:39;;;;;;;15.90;4.35;;;;;;;;;;5098816;28;20024;-73
2022/04/14 12:06:06;;;;;;;21.02;4.38;;;;;;;;;;5081013;28;20012;-73
2022/04/14 12:08:32;;;;;;;16.27;2.58;;;;;;;;;;5098785;28;20023;-73
2022/04/14 12:11:02;;;;;;;18.30;3.65;;;;;;;;;;5098863;28;20012;-73
2022/04/14 12:13:28;;;;;;;7.60;2.60;;;;;;;;;;5098882;28;20016;-73
2022/04/14 12:16:05;;;;;;;14.43;3.75;;;;;;;;;;5098761;28;20452;-73
2022/04/14 12:18:30;;;;;;;15.43;3.30;;;;;;;;;;5098702;28;20483;-73
2022/04/14 12:20:57;;;;;;;21.98;3.20;;;;;;;;;;5080264;28;20103;-73
2022/04/14 12:23:23;;;;;;;13.90;4.47;;;;;;;;;;5098624;28;20016;-73
2022/04/14 12:25:49;;;;;;;44.33;7.75;;;;;;;;;;5080068;28;20513;-73
2022/04/14 12:28:15;;;;;;;15.63;5.63;;;;;;;;;;5098594;28;20024;-73
2022/04/14 12:30:41;;;;;;;30.63;5.78;;;;;;;;;;5079838;28;20332;-73
2022/04/14 12:33:08;;;;;;;20.20;4.25;;;;;;;;;;5098325;28;20024;-73
2022/04/14 12:35:36;;;;;;;21.13;3.33;;;;;;;;;;5098212;28;20082;-73
2022/04/14 12:38:12;;;;;;;34.50;5.07;;;;;;;;;;5098333;28;20024;-73
2022/04/14 12:40:52;;;;;;;23.55;6.22;;;;;;;;;;5098190;28;20032;-73
2022/04/14 12:43:22;;;;;;;21.95;4.40;;;;;;;;;;5097715;28;20020;-73
2022/04/14 12:45:48;;;;;;;14.23;3.97;;;;;;;;;;5098309;28;20086;-73
2022/04/14 12:48:24;;;;;;;18.63;2.97;;;;;;;;;;5097791;28;20468;-73
2022/04/14 12:50:57;;;;;;;16.70;3.92;;;;;;;;;;5098209;28;20024;-72
2022/04/14 12:53:24;;;;;;;14.55;3.15;;;;;;;;;;5098086;28;20016;-72
2022/04/14 12:55:51;;;;;;;19.42;3.42;;;;;;;;;;5079912;28;20031;-72
2022/04/14 12:58:17;;;;;;;13.68;4.25;;;;;;;;;;5080099;28;20421;-74
2022/04/14 13:00:43;;;;;;;13.98;3.25;;;;;;;;;;5079710;28;20031;-72
2022/04/14 13:03:16;;;;;;;20.67;4.00;;;;;;;;;;5079850;28;20024;-75
2022/04/14 13:05:42;;;;;;;18.15;3.55;;;;;;;;;;5078821;28;20105;-72
2022/04/14 13:08:08;;;;;;;20.80;5.38;;;;;;;;;;5097690;28;20154;-72
2022/04/14 13:10:38;;;;;;;24.08;5.68;;;;;;;;;;5097130;28;20103;-75
2022/04/14 13:13:04;;;;;;;16.90;4.10;;;;;;;;;;5097898;28;20031;-72
2022/04/14 13:15:31;;;;;;;14.43;4.03;;;;;;;;;;5097556;28;20276;-74
2022/04/14 13:17:57;;;;;;;26.20;6.07;;;;;;;;;;5097118;28;20100;-75
2022/04/14 13:20:31;;;;;;;16.60;7.53;;;;;;;;;;5097526;28;20421;-72
2022/04/14 13:22:57;;;;;;;19.10;8.85;;;;;;;;;;5097628;28;20030;-72
2022/04/14 13:25:23;;;;;;;20.52;7.40;;;;;;;;;;5097498;28;20421;-72
2022/04/14 13:27:51;;;;;;;32.08;9.75;;;;;;;;;;5079586;28;20024;-72
2022/04/14 13:30:17;;;;;;;25.02;5.90;;;;;;;;;;5097541;28;20054;-75
2022/04/14 13:32:43;;;;;;;31.92;6.40;;;;;;;;;;5097476;28;20024;-72
2022/04/14 13:35:09;;;;;;;33.78;6.57;;;;;;;;;;5062809;28;20036;-72
2022/04/14 13:37:35;;;;;;;23.95;7.53;;;;;;;;;;5097346;28;20020;-72
2022/04/14 13:40:04;;;;;;;32.20;6.40;;;;;;;;;;5079371;28;20028;-74
2022/04/14 13:42:31;;;;;;;20.33;4.78;;;;;;;;;;5097353;28;20428;-72
2022/04/14 13:44:57;;;;;;;18.33;6.78;;;;;;;;;;5079505;28;20302;-72
2022/04/14 13:47:24;;;;;;;29.95;6.97;;;;;;;;;;5097193;28;20375;-74
2022/04/14 13:49:50;;;;;;;26.17;6.05;;;;;;;;;;5097266;28;20022;-74
2022/04/14 13:52:16;;;;;;;33.28;11.57;;;;;;;;;;5097261;28;20024;-72
2022/04/14 13:54:42;;;;;;;29.98;9.40;;;;;;;;;;5078638;28;20028;-72
2022/04/14 13:57:08;;;;;;;40.45;14.95;;;;;;;;;;5096579;28;20018;-72
2022/04/14 13:59:34;;;;;;;51.35;14.80;;;;;;;;;;5096600;28;20012;-73
2022/04/14 14:02:03;;;;;;;49.92;19.83;;;;;;;;;;5097177;28;20020;-73
2022/04/14 14:04:29;;;;;;;62.03;26.88;;;;;;;;;;5079282;28;20031;-72
2022/04/14 14:06:55;;;;;;;60.17;23.52;;;;;;;;;;5097103;28;20429;-73
2022/04/14 14:09:21;;;;;;;66.20;29.77;;;;;;;;;;5097060;28;20031;-72
2022/04/14 14:11:48;;;;;;;74.82;26.52;;;;;;;;;;5097068;28;20043;-72
2022/04/14 14:14:16;;;;;;;64.35;27.75;;;;;;;;;;5079068;28;20020;-72
2022/04/14 14:16:42;;;;;;;63.92;23.85;;;;;;;;;;5096858;28;20437;-73
2022/04/14 14:19:08;;;;;;;40.15;14.55;;;;;;;;;;5082818;28;20024;-72
2022/04/14 14:21:34;;;;;;;27.08;8.57;;;;;;;;;;5101039;28;20045;-72
2022/04/14 14:24:00;;;;;;;28.95;9.38;;;;;;;;;;5100773;28;20326;-73
2022/04/14 14:26:26;;;;;;;30.08;10.43;;;;;;;;;;5066169;28;20020;-72
2022/04/14 14:28:52;;;;;;;32.20;12.68;;;;;;;;;;5082821;28;20085;-73
2022/04/14 14:31:22;;;;;;;34.85;12.35;;;;;;;;;;5082378;28;20384;-73
2022/04/14 14:33:49;;;;;;;56.75;18.35;;;;;;;;;;5101283;28;20031;-73
2022/04/14 14:36:15;;;;;;;58.78;20.20;;;;;;;;;;5082688;28;20032;-73
2022/04/14 14:38:41;;;;;;;43.90;18.50;;;;;;;;;;5100626;28;20023;-73
2022/04/14 14:41:07;;;;;;;41.78;17.77;;;;;;;;;;5100163;28;20484;-73
2022/04/14 14:43:37;;;;;;;32.13;11.35;;;;;;;;;;5100585;28;20024;-72
2022/04/14 14:46:03;;;;;;;25.20;10.32;;;;;;;;;;5100452;28;20023;-73
2022/04/14 14:48:29;;;;;;;22.50;11.48;;;;;;;;;;5100511;28;20024;-73
2022/04/14 14:50:55;;;;;;;28.88;9.35;;;;;;;;;;5100448;28;20031;-73
2022/04/14 14:53:21;;;;;;;38.13;11.90;;;;;;;;;;5082134;28;20024;-74
2022/04/14 14:55:47;;;;;;;33.45;13.98;;;;;;;;;;5100348;28;20027;-73
2022/04/14 15:00:57;;;;;;;38.28;18.83;;;;;;;;;;5100269;28;20031;-72
2022/04/14 15:03:23;;;;;;;38.05;16.48;;;;;;;;;;5082122;28;20020;-72
2022/04/14 15:05:49;;;;;;;41.20;17.75;;;;;;;;;;5099622;28;20035;-74
2022/04/14 15:08:15;;;;;;;45.58;16.05;;;;;;;;;;5100075;28;20127;-74
2022/04/14 15:10:42;;;;;;;31.95;11.63;;;;;;;;;;5082316;28;20059;-72
2022/04/14 15:13:09;;;;;;;34.65;11.50;;;;;;;;;;5099662;28;20028;-74
2022/04/14 15:15:36;;;;;;;29.13;12.00;;;;;;;;;;5081385;28;20032;-74